Flight Track Log - Related Links

Times and Time Zones

All times are in EDT time to prevent confusion due to time zone crossing. See the N555CP flight status page for this flight to view local times or setup timezone preferences in your user account.

Time Position Orientation Groundspeed Altitude Reporting Facility
EDT Latitude Longitude Course Direction KTS MPH feet Rate Location/Type
Sun 05:27:17 PM 46.0450 -118.3903 250° West 130 150 3,600  Level Seattle Center
Sun 05:28:18 PM 46.0353 -118.4447 256° West 143 165 4,300 836 Climbing Seattle Center
Sun 05:29:19 PM 46.0278 -118.5028 259° West 146 168 5,300 984 Climbing Seattle Center
Sun 05:30:20 PM 46.0167 -118.5533 252° West 138 159 6,300 885 Climbing Seattle Center
Sun 05:31:21 PM 46.0089 -118.6031 257° West 129 148 7,100 836 Climbing Seattle Center
Sun 05:32:00 PM 46.0319 -118.6615 250° West  Level Estimated
Sun 05:32:22 PM 46.0008 -118.6572 258° West 139 160 8,000  Level Seattle Center
Sun 05:33:23 PM 45.9917 -118.7092 256° West 134 154 8,800 787 Climbing Seattle Center
Sun 05:34:24 PM 45.9825 -118.7728 258° West 136 157 9,600 787 Climbing Seattle Center
Sun 05:35:25 PM 45.9744 -118.8292 258° West 142 163 10,400 787 Climbing Seattle Center
Sun 05:36:26 PM 45.9661 -118.8825 257° West 137 158 11,200 738 Climbing Seattle Center
Sun 05:37:27 PM 45.9569 -118.9361 256° West 139 160 11,900 738 Climbing Seattle Center
Sun 05:38:28 PM 45.9483 -118.9900 257° West 139 160 12,700 738 Climbing Seattle Center
Sun 05:39:29 PM 45.9378 -119.0436 254° West 140 161 13,400 689 Climbing Seattle Center
Sun 05:40:30 PM 45.9283 -119.0989 256° West 143 165 14,100 683 Climbing Seattle Center
Sun 05:41:32 PM 45.9194 -119.1544 257° West 144 166 14,800 634 Climbing Seattle Center
Sun 05:42:33 PM 45.9094 -119.2103 256° West 145 167 15,400 639 Climbing Seattle Center
Sun 05:43:34 PM 45.8994 -119.2672 256° West 147 169 16,100 689 Climbing Seattle Center
Sun 05:44:35 PM 45.8900 -119.3253 257° West 150 173 16,800 738 Climbing Seattle Center
Sun 05:45:36 PM 45.8781 -119.3906 255° West 142 163 17,600 590 Climbing Seattle Center
Sun 05:46:37 PM 45.8678 -119.4486 256° West 149 171 18,000 197 Climbing Seattle Center
Sun 05:47:38 PM 45.8592 -119.5128 259° West 158 182 18,000  Level Seattle Center
Sun 05:48:39 PM 45.8478 -119.5789 256° West 167 192 18,000  Level Seattle Center
Sun 05:49:40 PM 45.8364 -119.6431 256° West 167 192 18,000  Level Seattle Center
Sun 05:50:41 PM 45.8233 -119.7097 254° West 171 197 18,000  Level Seattle Center
Sun 05:51:43 PM 45.8131 -119.7742 257° West 169 194 18,000  Level Seattle Center
Sun 05:52:44 PM 45.8014 -119.8411 256° West 171 197 18,000  Level Seattle Center
Sun 05:53:45 PM 45.7897 -119.9058 256° West 171 197 18,000  Level Seattle Center
Sun 05:54:46 PM 45.7778 -119.9692 255° West 168 193 18,000  Level Seattle Center
Sun 05:55:47 PM 45.7650 -120.0494 257° West 172 198 18,000  Level Seattle Center
Sun 05:56:48 PM 45.7522 -120.1161 255° West 174 200 18,000  Level Seattle Center
Sun 05:57:49 PM 45.7408 -120.1819 256° West 172 198 18,000  Level Seattle Center
Sun 05:58:50 PM 45.7292 -120.2472 256° West 170 196 18,000  Level Seattle Center
Sun 05:59:51 PM 45.7178 -120.3117 256° West 168 193 18,000  Level Seattle Center
Sun 06:00:53 PM 45.7058 -120.3764 255° West 169 194 18,000  Level Seattle Center
Sun 06:01:54 PM 45.6947 -120.4408 256° West 167 192 18,000  Level Seattle Center
Sun 06:02:55 PM 45.6833 -120.5069 256° West 170 196 18,000  Level Seattle Center
Sun 06:03:56 PM 45.6711 -120.5719 255° West 170 196 18,000  Level Seattle Center
Sun 06:04:57 PM 45.6597 -120.6358 256° West 168 193 18,000  Level Seattle Center
Sun 06:05:58 PM 45.6453 -120.7133 255° West 168 193 18,000  Level Seattle Center
Sun 06:06:59 PM 45.6325 -120.7792 255° West 170 196 18,000  Level Seattle Center
Sun 06:08:00 PM 45.6214 -120.8442 256° West 171 197 18,000  Level Seattle Center
Sun 06:09:01 PM 45.6100 -120.9092 256° West 170 196 18,000  Level Seattle Center
Sun 06:10:02 PM 45.5981 -120.9750 255° West 170 196 18,000  Level Seattle Center
Sun 06:11:03 PM 45.5883 -121.0417 258° West 172 198 18,000  Level Seattle Center
Sun 06:12:04 PM 45.5831 -121.1114 264° West 176 203 18,000  Level Seattle Center
Sun 06:13:06 PM 45.5781 -121.1792 264° West 174 200 18,000 -244 Level Seattle Center
Sun 06:14:07 PM 45.5717 -121.2506 263° West 181 208 17,500 -541 Descending Seattle Center
Sun 06:15:08 PM 45.5658 -121.3286 264° West 195 224 16,900 -509 Descending Seattle Center
Sun 06:15:53 PM 45.5586 -121.4006 262° West 190 219 16,600 -295 Descending Seattle Center
Sun 06:16:09 PM 45.5575 -121.4186 265° West 191 220 16,600 -375 Level Seattle Center
Sun 06:16:41 PM 45.5536 -121.4583 262° West 190 219 16,300 -492 Descending Seattle Center
Sun 06:17:10 PM 45.5522 -121.4922 267° West 188 216 16,100 -393 Descending Seattle Center
Sun 06:17:42 PM 45.5772 -121.5289 314° West 221 254 15,900 -197 Descending Seattle Center
Sun 06:18:11 PM 45.5994 -121.5444 334° Northwest 223 257 15,900 200 Level Seattle Center
Sun 06:18:42 PM 45.6250 -121.5797 316° Northwest 214 246 16,100 197 Climbing Seattle Center
Sun 06:19:12 PM 45.6411 -121.6019 316° Northwest 209 241 16,100 -279 Level Seattle Center
Sun 06:19:25 PM 45.6511 -121.6211 307° West 203 234 15,900 -787 Descending Seattle Center
Sun 06:20:13 PM 45.6783 -121.6642 312° West 208 239 15,300 -689 Descending Seattle Center
Sun 06:20:26 PM 45.6847 -121.6875 291° West 204 235 15,200 -590 Descending Seattle Center
Sun 06:21:14 PM 45.7003 -121.7397 293° West 208 239 14,700 -787 Descending Seattle Center
Sun 06:21:27 PM 45.6986 -121.7650 265° West 201 231 14,400 -1,279 Descending Seattle Center
Sun 06:22:15 PM 45.7044 -121.8242 278° West 213 245 13,400 -1,300 Descending Seattle Center
Sun 06:22:27 PM 45.7008 -121.8481 258° West 208 239 13,100 -2,032 Descending Seattle Center
Sun 06:23:17 PM 45.6689 -121.8819 217° Southwest 207 238 11,300 -2,239 Descending Seattle Center
Sun 06:23:34 PM 45.6500 -121.9067 222° Southwest 215 247 10,600 -1,180 Descending Seattle Center
Sun 06:24:18 PM 45.6206 -121.9383 217° Southwest 209 241 10,100 -1,082 Descending Seattle Center
Sun 06:24:35 PM 45.6111 -121.9603 238° Southwest 190 219 9,500 -1,869 Descending Seattle Center
Sun 06:25:19 PM 45.5847 -121.9922 220° Southwest 194 223 8,200 -1,400 Descending Seattle Center
Sun 06:25:35 PM 45.5722 -122.0136 230° Southwest 195 224 8,100 -1,082 Descending Seattle Center
Sun 06:26:20 PM 45.5517 -122.0469 229° Southwest 183 211 7,100 -984 Descending Seattle Center
Sun 06:26:36 PM 45.5406 -122.0703 236° Southwest 185 213 7,100  Level Seattle Center
Sun 06:27:21 PM 45.5211 -122.1031 230° Southwest 181 208 7,100  Level Seattle Center
Sun 06:27:37 PM 45.5083 -122.1239 229° Southwest 156 180 7,100 -492 Level Seattle Center
Sun 06:28:22 PM 45.4964 -122.1522 239° Southwest 159 183 6,600 -1,233 Descending Seattle Center
Sun 06:28:50 PM 45.4731 -122.1850 225° Southwest 194 223 5,600 -1,574 Descending Seattle Center
Sun 06:29:23 PM 45.4636 -122.2125 244° Southwest 185 213 5,000 -1,475 Descending Seattle Center
Sun 06:29:51 PM 45.4664 -122.2678 274° West 210 242 4,100 -885 Descending Seattle Center
Sun 06:30:24 PM 45.4653 -122.2917 266° West 198 228 4,100 -612 Level Seattle Center
Sun 06:30:40 PM 45.4525 -122.3167 234° Southwest 174 200 3,600 -98 Descending Seattle Center
Sun 06:31:25 PM 45.4439 -122.3631 255° West 169 194 4,000 358 Climbing Seattle Center
Sun 06:31:47 PM 45.4381 -122.3844 249° West 146 168 4,000  Level Seattle Center
Sun 06:32:27 PM 45.4308 -122.4158 252° West 150 173 4,000  Level Seattle Center
Sun 06:32:42 PM 45.4250 -122.4267 233° Southwest 139 160 4,000  Level Seattle Center
Sun 06:33:28 PM 45.4094 -122.4611 237° Southwest 140 161 4,000  Level Seattle Center
Sun 06:33:55 PM 45.3969 -122.4811 228° Southwest 137 158 4,000 -590 Level Seattle Center
Sun 06:34:29 PM 45.3847 -122.5053 234° Southwest 141 162 3,400 -900 Descending Seattle Center
Sun 06:34:55 PM 45.3725 -122.5314 236° Southwest 167 192 3,100 -492 Descending Seattle Center
Sun 06:35:30 PM 45.3689 -122.5644 261° West 168 193 2,900 -436 Descending Seattle Center
Sun 06:35:50 PM 45.3775 -122.5878 298° West 177 204 2,700 -197 Descending Seattle Center
Sun 06:36:31 PM 45.3944 -122.6219 305° West 176 203 2,700 98 Level Seattle Center
Sun 06:36:51 PM 45.4061 -122.6436 307° West 171 197 2,800 -98 Climbing Seattle Center
Sun 06:37:32 PM 45.4189 -122.6769 299° West 170 196 2,600 -295 Descending Seattle Center
Sun 06:37:52 PM 45.4083 -122.6981 235° Southwest 154 177 2,500 295 Descending Seattle Center
Sun 06:38:33 PM 45.4022 -122.7283 254° West 141 162 2,900 444 Climbing Seattle Center
Sun 06:38:46 PM 45.4006 -122.7444 262° West 126 145 2,900 -393 Level Seattle Center
Sun 06:39:34 PM 45.3847 -122.7686 227° Southwest 140 161 2,500 -500 Descending Seattle Center

Login

Don't have an account? Register now (free) for customized features, flight alerts, and more!